Grover Beach, California
Current Conditions -  °F | °C
As of 10:56 AM on Monday 20 Oct 2014 (Local Time) from KSBP Reporting Station
Clear Clear  
Wind Chill: 69°   Ceiling: Unl
Heat Index: 69°   Visibility: 10mi
Dew Point: 56°   Wind: 6mph
Humidity: 63%   Direction: 270°W
Pressure: 29.97"   Gusts: NA
Location:  35.12°N, 120.62°W
Report Text: KSBP 201756Z 27005KT 10SM CLR 21/13 A2997 RMK AO2 SLP148 T02060133 10206 20156 50006
Loading
Personal Weather Stations






























Interactive Weather Map
Tropical Storm Tracking
New forecast layout! Learn more

10-Day Weather Forecast

Advertisements
Track Severe Weather on mobile